createdAt,value
2019-03-31T00:00:31.643Z,11.00
2019-03-31T00:03:00.169Z,10.90
2019-03-31T00:05:28.628Z,10.90
2019-03-31T00:07:57.104Z,10.90
2019-03-31T00:10:25.786Z,10.90
2019-03-31T00:12:54.324Z,10.90
2019-03-31T00:15:22.803Z,10.80
2019-03-31T00:17:51.259Z,10.70
2019-03-31T00:20:19.719Z,10.70
2019-03-31T00:22:48.197Z,10.70
2019-03-31T00:25:16.722Z,10.70
2019-03-31T00:27:45.170Z,10.60
2019-03-31T00:30:14.064Z,10.60
2019-03-31T00:32:42.568Z,10.60
2019-03-31T00:35:11.092Z,10.50
2019-03-31T00:37:39.662Z,10.50
2019-03-31T00:40:08.851Z,10.40
2019-03-31T00:42:37.391Z,10.20
2019-03-31T00:45:07.647Z,10.20
2019-03-31T00:47:36.814Z,10.10
2019-03-31T00:50:06.340Z,10.10
2019-03-31T00:52:34.949Z,10.00
2019-03-31T00:55:03.473Z,10.00
2019-03-31T00:57:31.920Z,10.00
2019-03-31T01:00:00.494Z,10.00
2019-03-31T01:02:30.892Z,10.10
2019-03-31T01:05:06.422Z,10.10
2019-03-31T01:07:34.940Z,10.20
2019-03-31T01:10:04.999Z,10.30
2019-03-31T01:12:33.560Z,10.30
2019-03-31T01:15:03.745Z,10.30
2019-03-31T01:17:32.635Z,10.20
2019-03-31T01:20:01.231Z,10.20
2019-03-31T01:22:29.750Z,10.30
2019-03-31T01:24:58.485Z,10.20
2019-03-31T01:27:27.115Z,10.20
2019-03-31T01:29:55.719Z,10.20
2019-03-31T01:32:24.512Z,10.20
2019-03-31T01:34:53.111Z,10.20
2019-03-31T01:37:21.715Z,10.20
2019-03-31T01:39:50.301Z,10.10
2019-03-31T01:42:18.787Z,10.10
2019-03-31T01:44:47.247Z,10.20
2019-03-31T01:47:15.971Z,10.10
2019-03-31T01:49:44.448Z,10.10
2019-03-31T01:52:12.994Z,10.10
2019-03-31T01:54:41.443Z,10.00
2019-03-31T01:57:09.989Z,10.10
2019-03-31T01:59:38.443Z,10.10
2019-03-31T02:02:08.815Z,10.00
2019-03-31T02:04:37.356Z,9.90
2019-03-31T02:07:08.088Z,9.80
2019-03-31T02:09:36.599Z,9.80
2019-03-31T02:12:05.281Z,9.80
2019-03-31T02:14:33.745Z,9.70
2019-03-31T02:17:02.194Z,9.70
2019-03-31T02:19:30.671Z,9.70
2019-03-31T02:21:59.116Z,9.70
2019-03-31T02:24:27.558Z,9.70
2019-03-31T02:26:56.116Z,9.60
2019-03-31T02:29:24.563Z,9.70
2019-03-31T02:31:53.035Z,9.70
2019-03-31T02:34:21.572Z,9.70
2019-03-31T02:36:50.025Z,9.60
2019-03-31T02:39:18.553Z,9.70
2019-03-31T02:41:47.027Z,9.60
2019-03-31T02:44:15.548Z,9.60
2019-03-31T02:46:44.047Z,9.60
2019-03-31T02:49:12.541Z,9.60
2019-03-31T02:51:41.128Z,9.60
2019-03-31T02:54:09.652Z,9.60
2019-03-31T02:56:38.689Z,9.50
2019-03-31T02:59:07.776Z,9.50
2019-03-31T03:01:37.567Z,9.40
2019-03-31T03:04:08.115Z,9.40
2019-03-31T03:06:38.937Z,9.40
2019-03-31T03:09:07.621Z,9.40
2019-03-31T03:11:36.256Z,9.40
2019-03-31T03:14:25.562Z,9.40
2019-03-31T03:16:54.129Z,9.30
2019-03-31T03:19:22.577Z,9.20
2019-03-31T03:21:51.024Z,9.20
2019-03-31T03:24:19.631Z,9.20
2019-03-31T03:26:48.159Z,9.20
2019-03-31T03:29:16.671Z,9.20
2019-03-31T03:31:45.337Z,9.20
2019-03-31T03:34:13.978Z,9.20
2019-03-31T03:36:43.564Z,9.10
2019-03-31T03:39:12.265Z,9.10
2019-03-31T03:41:40.777Z,9.10
2019-03-31T03:44:09.245Z,9.10
2019-03-31T03:46:38.689Z,9.10
2019-03-31T03:49:07.197Z,9.10
2019-03-31T03:51:35.658Z,9.10
2019-03-31T03:54:04.304Z,9.20
2019-03-31T03:56:32.771Z,9.20
2019-03-31T03:59:01.276Z,9.10
2019-03-31T04:01:31.742Z,9.10
2019-03-31T04:04:00.313Z,9.20
2019-03-31T04:06:28.769Z,9.10
2019-03-31T04:08:57.312Z,9.10
2019-03-31T04:11:26.104Z,9.10
2019-03-31T04:13:54.778Z,9.00
2019-03-31T04:16:23.388Z,9.00
2019-03-31T04:18:51.838Z,9.00
2019-03-31T04:21:20.367Z,9.00
2019-03-31T04:23:48.973Z,9.00
2019-03-31T04:26:17.553Z,8.90
2019-03-31T04:28:46.079Z,8.90
2019-03-31T04:31:14.764Z,8.80
2019-03-31T04:33:51.797Z,8.80
2019-03-31T04:36:13.711Z,8.80
2019-03-31T04:38:42.244Z,8.70
2019-03-31T04:41:10.701Z,8.70
2019-03-31T04:43:39.212Z,8.70
2019-03-31T04:46:07.684Z,8.70
2019-03-31T04:48:36.203Z,8.70
2019-03-31T04:51:04.734Z,8.60
2019-03-31T04:53:33.259Z,8.60
2019-03-31T04:56:03.279Z,8.50
2019-03-31T04:58:31.715Z,8.50
2019-03-31T05:01:00.349Z,8.50
2019-03-31T05:03:57.929Z,8.40
2019-03-31T05:06:18.323Z,8.40
2019-03-31T05:08:46.787Z,8.40
2019-03-31T05:11:15.227Z,8.40
2019-03-31T05:13:43.769Z,8.30
2019-03-31T05:16:12.220Z,8.40
2019-03-31T05:18:40.668Z,8.30
2019-03-31T05:21:09.929Z,8.30
2019-03-31T05:23:38.372Z,8.30
2019-03-31T05:26:06.975Z,8.30
2019-03-31T05:28:35.663Z,8.30
2019-03-31T05:31:04.285Z,8.30
2019-03-31T05:33:32.963Z,8.30
2019-03-31T05:36:07.601Z,8.30
2019-03-31T05:38:38.670Z,8.40
2019-03-31T05:41:10.514Z,8.40
2019-03-31T05:46:28.096Z,8.40
2019-03-31T05:48:56.580Z,8.50
2019-03-31T05:51:25.033Z,8.50
2019-03-31T05:53:53.488Z,8.40
2019-03-31T05:56:22.035Z,8.50
2019-03-31T05:58:50.500Z,8.40
2019-03-31T06:01:18.944Z,8.50
2019-03-31T06:03:47.424Z,8.40
2019-03-31T06:06:15.868Z,8.40
2019-03-31T06:08:44.311Z,8.50
2019-03-31T06:11:12.792Z,8.50
2019-03-31T06:13:41.239Z,8.50
2019-03-31T06:16:09.696Z,8.50
2019-03-31T06:18:38.165Z,8.50
2019-03-31T06:21:06.615Z,8.50
2019-03-31T06:23:35.077Z,8.50
2019-03-31T06:26:03.581Z,8.50
2019-03-31T06:28:32.079Z,8.50
2019-03-31T06:31:19.976Z,8.50
2019-03-31T06:33:48.423Z,8.50
2019-03-31T06:36:16.910Z,8.50
2019-03-31T06:38:45.380Z,8.50
2019-03-31T06:41:13.876Z,8.60
2019-03-31T06:43:42.315Z,8.50
2019-03-31T06:46:11.061Z,8.50
2019-03-31T06:48:39.503Z,8.50
2019-03-31T06:51:07.956Z,8.50
2019-03-31T06:53:36.469Z,8.50
2019-03-31T06:56:04.969Z,8.50
2019-03-31T06:58:33.418Z,8.50
2019-03-31T07:01:02.271Z,8.50
2019-03-31T07:03:30.789Z,8.50
2019-03-31T07:05:59.309Z,8.60
2019-03-31T07:08:27.774Z,8.60
2019-03-31T07:10:56.233Z,8.60
2019-03-31T07:13:24.686Z,8.60
2019-03-31T07:15:53.171Z,8.50
2019-03-31T07:18:21.617Z,8.60
2019-03-31T07:20:50.458Z,8.70
2019-03-31T07:23:19.028Z,8.60
2019-03-31T07:25:47.474Z,8.60
2019-03-31T07:28:15.919Z,8.60
2019-03-31T07:30:44.564Z,8.60
2019-03-31T07:33:13.003Z,8.60
2019-03-31T07:35:41.464Z,8.60
2019-03-31T07:38:10.013Z,8.70
2019-03-31T07:40:38.685Z,8.70
2019-03-31T07:43:07.590Z,8.70
2019-03-31T07:45:36.149Z,8.70
2019-03-31T07:48:07.998Z,8.70
2019-03-31T07:50:34.960Z,8.60
2019-03-31T07:53:03.500Z,8.60
2019-03-31T07:55:32.020Z,8.60
2019-03-31T07:58:00.456Z,8.70
2019-03-31T08:00:29.015Z,8.70
2019-03-31T08:03:00.197Z,8.70
2019-03-31T08:05:33.412Z,8.70
2019-03-31T08:07:57.943Z,8.80
2019-03-31T08:10:26.469Z,8.80
2019-03-31T08:12:54.905Z,8.70
2019-03-31T08:15:23.359Z,8.80
2019-03-31T08:17:51.859Z,8.80
2019-03-31T08:20:20.529Z,8.90
2019-03-31T08:22:49.078Z,8.90
2019-03-31T08:25:18.171Z,8.90
2019-03-31T08:27:46.609Z,8.90
2019-03-31T08:30:15.814Z,8.80
2019-03-31T08:32:44.346Z,8.90
2019-03-31T08:35:13.479Z,8.90
2019-03-31T08:37:42.015Z,9.00
2019-03-31T08:40:12.724Z,9.00
2019-03-31T08:42:41.162Z,9.00
2019-03-31T08:45:09.970Z,9.00
2019-03-31T08:47:38.692Z,9.00
2019-03-31T08:50:07.974Z,9.00
2019-03-31T08:52:36.521Z,9.00
2019-03-31T08:55:05.671Z,9.00
2019-03-31T08:57:53.494Z,9.00
2019-03-31T09:00:27.099Z,9.10
2019-03-31T09:02:55.536Z,9.00
2019-03-31T09:05:24.104Z,9.00
2019-03-31T09:07:52.660Z,9.00
2019-03-31T09:10:21.177Z,9.00
2019-03-31T09:12:49.859Z,9.00
2019-03-31T09:15:18.382Z,9.10
2019-03-31T09:17:46.891Z,9.10
2019-03-31T09:20:17.187Z,9.20
2019-03-31T09:22:45.633Z,9.30
2019-03-31T09:25:14.144Z,9.30
2019-03-31T09:27:42.627Z,9.40
2019-03-31T09:30:11.726Z,9.30
2019-03-31T09:32:40.220Z,9.40
2019-03-31T09:35:09.323Z,9.40
2019-03-31T09:37:37.897Z,9.60
2019-03-31T09:40:08.580Z,9.40
2019-03-31T09:42:37.295Z,9.40
2019-03-31T09:45:06.984Z,9.30
2019-03-31T09:47:35.991Z,9.40
2019-03-31T09:50:07.799Z,9.50
2019-03-31T09:52:36.239Z,9.50
2019-03-31T09:55:06.717Z,9.50
2019-03-31T09:57:35.352Z,9.50
2019-03-31T10:00:24.652Z,9.50
2019-03-31T10:03:01.229Z,9.50
2019-03-31T10:05:29.823Z,9.60
2019-03-31T10:07:58.599Z,9.70
2019-03-31T10:10:31.720Z,9.80
2019-03-31T10:13:00.804Z,9.70
2019-03-31T10:15:29.357Z,9.90
2019-03-31T10:17:57.867Z,10.00
2019-03-31T10:20:26.304Z,10.20
2019-03-31T10:22:54.766Z,10.10
2019-03-31T10:25:23.296Z,10.10
2019-03-31T10:27:51.822Z,10.30
2019-03-31T10:30:39.773Z,10.40
2019-03-31T10:33:09.541Z,10.50
2019-03-31T10:35:38.066Z,10.30
2019-03-31T10:38:07.008Z,10.50
2019-03-31T10:40:35.459Z,10.50
2019-03-31T10:43:04.061Z,10.40
2019-03-31T10:45:32.534Z,10.60
2019-03-31T10:48:01.048Z,10.40
2019-03-31T10:50:29.563Z,10.50
2019-03-31T10:52:58.030Z,10.80
2019-03-31T10:55:26.549Z,10.60
2019-03-31T10:57:54.993Z,10.60
2019-03-31T11:00:31.713Z,10.90
2019-03-31T11:03:00.168Z,11.20
2019-03-31T11:05:28.616Z,11.20
2019-03-31T11:07:57.086Z,11.40
2019-03-31T11:10:25.611Z,11.50
2019-03-31T11:12:54.067Z,11.30
2019-03-31T11:15:22.534Z,11.50
2019-03-31T11:17:50.969Z,11.50
2019-03-31T11:20:19.425Z,11.40
2019-03-31T11:22:49.700Z,11.20
2019-03-31T11:25:22.113Z,11.40
2019-03-31T11:27:48.493Z,11.40
2019-03-31T11:30:17.046Z,11.60
2019-03-31T11:32:46.030Z,11.60
2019-03-31T11:35:33.889Z,11.80
2019-03-31T11:38:02.643Z,11.70
2019-03-31T11:40:31.084Z,11.40
2019-03-31T11:42:59.648Z,11.50
2019-03-31T11:45:28.168Z,11.20
2019-03-31T11:47:56.623Z,11.50
2019-03-31T11:50:25.105Z,11.70
2019-03-31T11:52:53.606Z,11.80
2019-03-31T11:55:22.135Z,11.70
2019-03-31T11:57:50.597Z,11.90
2019-03-31T12:00:21.321Z,12.00
2019-03-31T12:05:35.602Z,12.40
2019-03-31T12:08:04.113Z,12.40
2019-03-31T12:10:32.571Z,12.90
2019-03-31T12:13:01.135Z,14.00
2019-03-31T12:15:29.585Z,13.60
2019-03-31T12:17:58.038Z,13.30
2019-03-31T12:20:26.533Z,13.50
2019-03-31T12:22:55.044Z,13.50
2019-03-31T12:25:23.558Z,13.70
2019-03-31T12:27:52.031Z,13.40
2019-03-31T12:30:27.805Z,13.30
2019-03-31T12:32:58.067Z,13.30
2019-03-31T12:35:26.574Z,14.20
2019-03-31T12:37:55.446Z,14.60
2019-03-31T12:40:34.599Z,14.10
2019-03-31T12:43:03.119Z,13.70
2019-03-31T12:45:31.780Z,13.30
2019-03-31T12:48:01.347Z,13.10
2019-03-31T12:50:30.391Z,13.00
2019-03-31T12:52:58.904Z,12.80
2019-03-31T12:55:33.693Z,12.60
2019-03-31T12:58:02.275Z,12.70
2019-03-31T13:00:30.800Z,12.70
2019-03-31T13:02:59.271Z,12.70
2019-03-31T13:05:27.715Z,12.80
2019-03-31T13:07:57.035Z,12.80
2019-03-31T13:10:25.794Z,13.00
2019-03-31T13:12:54.243Z,13.40
2019-03-31T13:15:22.762Z,13.50
2019-03-31T13:17:52.323Z,13.70
2019-03-31T13:20:20.920Z,13.50
2019-03-31T13:22:49.368Z,13.90
2019-03-31T13:25:17.895Z,14.00
2019-03-31T13:27:46.446Z,13.80
2019-03-31T13:30:15.224Z,13.60
2019-03-31T13:32:43.687Z,13.60
2019-03-31T13:35:12.280Z,14.00
2019-03-31T13:37:40.721Z,14.00
2019-03-31T13:40:09.652Z,13.50
2019-03-31T13:42:38.214Z,13.50
2019-03-31T13:45:07.397Z,13.70
2019-03-31T13:47:35.898Z,14.00
2019-03-31T13:50:07.838Z,14.20
2019-03-31T13:52:36.293Z,14.00
2019-03-31T13:55:08.472Z,13.90
2019-03-31T13:57:37.582Z,13.90
2019-03-31T14:00:09.464Z,14.20
2019-03-31T14:02:48.240Z,13.20
2019-03-31T14:05:16.680Z,13.10
2019-03-31T14:07:45.168Z,13.00
2019-03-31T14:10:13.951Z,13.10
2019-03-31T14:12:42.391Z,13.30
2019-03-31T14:15:19.075Z,13.50
2019-03-31T14:17:41.212Z,13.40
2019-03-31T14:20:10.187Z,13.30
2019-03-31T14:22:38.632Z,13.40
2019-03-31T14:25:07.256Z,13.10
2019-03-31T14:27:35.710Z,13.20
2019-03-31T14:30:06.155Z,13.00
2019-03-31T14:32:34.713Z,13.30
2019-03-31T14:35:03.329Z,13.30
2019-03-31T14:37:31.907Z,13.20
2019-03-31T14:40:00.464Z,12.90
2019-03-31T14:42:28.904Z,12.80
2019-03-31T14:44:57.432Z,12.80
2019-03-31T14:47:26.000Z,13.10
2019-03-31T14:49:54.483Z,13.30
2019-03-31T14:52:27.481Z,13.80
2019-03-31T14:54:55.784Z,14.50
2019-03-31T14:57:23.442Z,15.00
2019-03-31T14:59:51.997Z,14.60
2019-03-31T15:02:20.472Z,14.60
2019-03-31T15:04:53.659Z,14.80
2019-03-31T15:07:19.121Z,15.60
2019-03-31T15:09:47.580Z,15.80
2019-03-31T15:12:16.035Z,15.90
2019-03-31T15:14:44.485Z,16.70
2019-03-31T15:17:12.988Z,16.50
2019-03-31T15:19:41.500Z,15.80
2019-03-31T15:22:10.042Z,16.10
2019-03-31T15:24:38.532Z,15.40
2019-03-31T15:27:06.981Z,16.30
2019-03-31T15:29:35.443Z,16.20
2019-03-31T15:32:04.035Z,16.10
2019-03-31T15:34:32.476Z,16.20
2019-03-31T15:37:00.919Z,16.00
2019-03-31T15:39:29.388Z,15.00
2019-03-31T15:41:57.837Z,15.80
2019-03-31T15:44:26.282Z,15.50
2019-03-31T15:46:54.828Z,15.90
2019-03-31T15:49:23.384Z,15.80
2019-03-31T15:51:51.939Z,15.90
2019-03-31T15:54:20.399Z,16.60
2019-03-31T15:56:48.850Z,16.20
2019-03-31T15:59:17.385Z,15.60
2019-03-31T16:01:45.873Z,15.60
2019-03-31T16:04:14.316Z,14.90
2019-03-31T16:06:43.877Z,14.90
2019-03-31T16:09:22.939Z,14.20
2019-03-31T16:11:53.161Z,13.40
2019-03-31T16:14:12.675Z,12.50
2019-03-31T16:16:41.159Z,12.20
2019-03-31T16:19:09.700Z,12.10
2019-03-31T16:21:38.281Z,11.80
2019-03-31T16:24:06.755Z,11.80
2019-03-31T16:26:35.266Z,11.70
2019-03-31T16:29:21.926Z,11.70
2019-03-31T16:31:50.368Z,11.50
2019-03-31T16:34:18.860Z,11.50
2019-03-31T16:36:47.373Z,11.50
2019-03-31T16:39:15.823Z,11.60
2019-03-31T16:41:44.272Z,11.60
2019-03-31T16:44:12.764Z,11.30
2019-03-31T16:46:41.284Z,11.10
2019-03-31T16:49:09.731Z,11.20
2019-03-31T16:51:42.409Z,10.90
2019-03-31T16:54:11.000Z,10.80
2019-03-31T16:56:39.529Z,10.70
2019-03-31T16:59:07.999Z,10.60
2019-03-31T17:01:36.443Z,10.50
2019-03-31T17:04:05.035Z,10.50
2019-03-31T17:06:33.588Z,10.40
2019-03-31T17:09:02.101Z,10.40
2019-03-31T17:11:30.566Z,10.30
2019-03-31T17:13:59.032Z,10.20
2019-03-31T17:16:27.551Z,10.10
2019-03-31T17:18:55.992Z,10.10
2019-03-31T17:21:24.542Z,10.00
2019-03-31T17:23:53.099Z,10.00
2019-03-31T17:26:21.541Z,9.90
2019-03-31T17:28:49.986Z,9.80
2019-03-31T17:31:18.612Z,9.70
2019-03-31T17:33:47.059Z,9.70
2019-03-31T17:36:15.496Z,9.60
2019-03-31T17:38:43.964Z,9.50
2019-03-31T17:41:12.428Z,9.50
2019-03-31T17:43:40.935Z,9.50
2019-03-31T17:46:09.406Z,9.30
2019-03-31T17:48:37.844Z,9.30
2019-03-31T17:51:06.323Z,9.20
2019-03-31T17:53:34.839Z,9.10
2019-03-31T17:56:03.366Z,9.10
2019-03-31T17:58:31.813Z,9.00
2019-03-31T18:01:00.355Z,8.90
2019-03-31T18:03:28.812Z,8.90
2019-03-31T18:05:57.246Z,8.90
2019-03-31T18:08:25.731Z,8.80
2019-03-31T18:10:54.173Z,8.70
2019-03-31T18:13:22.622Z,8.70
2019-03-31T18:15:51.090Z,8.60
2019-03-31T18:18:19.524Z,8.50
2019-03-31T18:20:47.972Z,8.50
2019-03-31T18:23:16.447Z,8.40
2019-03-31T18:25:44.893Z,8.40
2019-03-31T18:28:13.336Z,8.40
2019-03-31T18:30:41.842Z,8.30
2019-03-31T18:33:10.360Z,8.30
2019-03-31T18:35:38.792Z,8.20
2019-03-31T18:38:07.253Z,8.20
2019-03-31T18:40:36.636Z,8.20
2019-03-31T18:43:05.075Z,8.10
2019-03-31T18:45:33.687Z,8.10
2019-03-31T18:48:02.214Z,8.00
2019-03-31T18:50:30.768Z,8.00
2019-03-31T18:52:59.337Z,7.90
2019-03-31T18:55:38.559Z,7.80
2019-03-31T18:58:24.771Z,7.90
2019-03-31T19:01:03.492Z,7.80
2019-03-31T19:03:42.660Z,7.70
2019-03-31T19:06:15.268Z,7.70
2019-03-31T19:08:50.897Z,7.70
2019-03-31T19:11:26.452Z,7.70
2019-03-31T19:14:08.416Z,7.60
2019-03-31T19:16:38.537Z,7.60
2019-03-31T19:19:08.609Z,7.50
2019-03-31T19:21:53.840Z,7.50
2019-03-31T19:24:38.577Z,7.50
2019-03-31T19:27:24.691Z,7.40
2019-03-31T19:30:03.688Z,7.40
2019-03-31T19:32:42.534Z,7.40
2019-03-31T19:35:15.123Z,7.40
2019-03-31T19:37:54.110Z,7.40
2019-03-31T19:40:41.647Z,7.30
2019-03-31T19:43:23.727Z,7.30
2019-03-31T19:45:59.795Z,7.20
2019-03-31T19:48:57.508Z,7.20
2019-03-31T19:51:36.428Z,7.20
2019-03-31T19:54:06.728Z,7.20
2019-03-31T19:56:39.369Z,7.10
2019-03-31T19:59:18.180Z,7.10
2019-03-31T20:01:48.248Z,7.10
2019-03-31T20:04:39.364Z,7.00
2019-03-31T20:07:21.420Z,7.00
2019-03-31T20:09:51.750Z,7.00
2019-03-31T20:12:30.644Z,6.90
2019-03-31T20:15:15.777Z,6.90
2019-03-31T20:17:57.738Z,6.80
2019-03-31T20:20:27.897Z,6.80
2019-03-31T20:23:10.191Z,6.80
2019-03-31T20:25:45.782Z,6.80
2019-03-31T20:28:18.655Z,6.80
2019-03-31T20:31:07.011Z,6.70
2019-03-31T20:33:39.887Z,6.70
2019-03-31T20:36:12.695Z,6.70
2019-03-31T20:38:45.512Z,6.70
2019-03-31T20:41:30.955Z,6.60
2019-03-31T20:43:59.471Z,6.60
2019-03-31T20:46:27.924Z,6.50
2019-03-31T20:48:56.406Z,6.50
2019-03-31T20:51:25.048Z,6.50
2019-03-31T20:53:53.546Z,6.50
2019-03-31T20:56:22.029Z,6.40
2019-03-31T20:58:50.468Z,6.40
2019-03-31T21:01:19.052Z,6.40
2019-03-31T21:03:47.686Z,6.30
2019-03-31T21:06:16.231Z,6.30
2019-03-31T21:08:44.743Z,6.40
2019-03-31T21:11:13.224Z,6.30
2019-03-31T21:13:41.665Z,6.30
2019-03-31T21:16:10.109Z,6.30
2019-03-31T21:18:38.567Z,6.20
2019-03-31T21:21:07.021Z,6.20
2019-03-31T21:23:35.459Z,6.10
2019-03-31T21:26:04.079Z,6.10
2019-03-31T21:28:32.598Z,6.10
2019-03-31T21:31:01.104Z,6.10
2019-03-31T21:33:29.641Z,6.10
2019-03-31T21:35:58.147Z,6.00
2019-03-31T21:38:26.599Z,6.00
2019-03-31T21:40:55.055Z,6.00
2019-03-31T21:43:23.562Z,6.00
2019-03-31T21:45:52.121Z,5.90
2019-03-31T21:48:20.624Z,5.90
2019-03-31T21:50:49.162Z,5.90
2019-03-31T21:53:17.742Z,5.90
2019-03-31T21:55:46.268Z,5.90
2019-03-31T21:58:14.703Z,5.80
2019-03-31T22:00:48.304Z,5.80
2019-03-31T22:03:16.787Z,5.80
2019-03-31T22:05:45.301Z,5.80
2019-03-31T22:08:13.875Z,5.70
2019-03-31T22:10:42.440Z,5.70
2019-03-31T22:13:10.876Z,5.70
2019-03-31T22:15:39.320Z,5.70
2019-03-31T22:18:07.917Z,5.70
2019-03-31T22:20:36.372Z,5.70
2019-03-31T22:23:04.880Z,5.60
2019-03-31T22:25:33.359Z,5.60
2019-03-31T22:28:01.804Z,5.60
2019-03-31T22:30:30.315Z,5.60
2019-03-31T22:32:58.803Z,5.60
2019-03-31T22:35:27.315Z,5.60
2019-03-31T22:37:55.812Z,5.50
2019-03-31T22:40:24.289Z,5.50
2019-03-31T22:42:52.716Z,5.50
2019-03-31T22:45:21.317Z,5.50
2019-03-31T22:47:49.795Z,5.50
2019-03-31T22:50:18.303Z,5.40
2019-03-31T22:52:46.746Z,5.50
2019-03-31T22:55:15.215Z,5.40
2019-03-31T22:57:43.651Z,5.40
2019-03-31T23:00:14.066Z,5.40
2019-03-31T23:02:42.534Z,5.40
2019-03-31T23:05:11.036Z,5.40
2019-03-31T23:07:39.471Z,5.40
2019-03-31T23:10:08.092Z,5.40
2019-03-31T23:12:36.535Z,5.40
2019-03-31T23:15:06.624Z,5.40
2019-03-31T23:17:35.187Z,5.40
2019-03-31T23:20:04.068Z,5.40
2019-03-31T23:22:32.499Z,5.40
2019-03-31T23:25:01.035Z,5.40
2019-03-31T23:27:29.478Z,5.30
2019-03-31T23:29:57.989Z,5.30
2019-03-31T23:32:26.459Z,5.30
2019-03-31T23:34:54.906Z,5.30
2019-03-31T23:37:23.350Z,5.30
2019-03-31T23:39:51.817Z,5.20
2019-03-31T23:42:20.253Z,5.20
2019-03-31T23:44:48.691Z,5.30
2019-03-31T23:47:17.168Z,5.20
2019-03-31T23:49:45.616Z,5.20
2019-03-31T23:52:14.055Z,5.30
2019-03-31T23:54:42.523Z,5.20
2019-03-31T23:57:10.967Z,5.20
2019-03-31T23:59:39.418Z,5.20
